Pagrindinis puslapis
METAR-TAF:

METAR-TAF

Oro uostai :

Qurayyat, Saudo Arabija

platuma: 31-24N, ilguma: 037-16E, Aukštis: 509 m

Dabartinis oras

Ataskaita buvo paskelbta 21 minutes, ne 22:00 UTC
Vėjas 8 kt iš Vakarų/Šiaurės Vakarų
Temperatūra 24°C
Drėgmė 36%
Slėgis 1015 hPa
Matomumas 10 km arba daugiau
nėra debesų žemiau 1500 m ir nėra kamuolinių lietaus debesų

METAR: OEGT 242200Z 30008KT CAVOK 24/08 Q1015 NOSIG

Laikas: 01:21 (22:21 UTC)

Prognozė

Ataskaita buvo paskelbta 11 valandos ir 21 minutes, ne 11:00 UTC
Prognozė galioja nuo 24 metu 12 UTC su 25 metu 18 UTC
Vėjas 10 kt iš Šiaurės/Šiaurės Vakarų
Matomumas 10 km arba daugiau
nėra debesų žemiau 1500 m ir nėra kamuolinių lietaus debesų
Tapsmas
nuo 25 metu 06 UTC su 25 metu 08 UTC
Vėjas 3 kt nuo kintamojo kryptimis
Tapsmas
nuo 25 metu 11 UTC su 25 metu 13 UTC
Vėjas 8 kt iš Šiaurės

TAF: OEGT 241100Z 2412/2518 34010KT CAVOK BECMG 2506/2508 VRB03KT BECMG 2511/2513 35008KT

Orai ataskaitas ir orų prognozės (METAR, TAF).

turimą stotys yra geltonos ir raudonos taškus žemėlapyje.

Perkelti pele per norėdami pamatyti stoties vardą.

Tada spustelėkite, norėdami matyti oro stebėjimo ir prognozės.

Norėdami pakeisti žemėlapį: spustelėkite ant žalios mygtukų su juodo kryžiaus žemyn,; žalią mygtuką su brūkšneliu, jei norite nutolinti; arba žalių rodyklių gretimoms žemėlapius.


METAR-TAF: